createdAt,value
2023-03-16T00:02:09.256Z,100515.34
2023-03-16T00:06:11.202Z,100521.59
2023-03-16T00:10:13.249Z,100520.69
2023-03-16T00:14:17.434Z,100521.69
2023-03-16T00:18:19.575Z,100520.88
2023-03-16T00:22:27.039Z,100518.56
2023-03-16T00:26:29.234Z,100518.03
2023-03-16T00:30:32.726Z,100525.41
2023-03-16T00:34:34.736Z,100519.34
2023-03-16T00:38:45.395Z,100524.19
2023-03-16T00:42:47.352Z,100526.84
2023-03-16T00:46:49.227Z,100529.56
2023-03-16T00:50:54.416Z,100529.34
2023-03-16T00:54:56.312Z,100537.31
2023-03-16T00:58:58.126Z,100537.97
2023-03-16T01:02:59.971Z,100542.44
2023-03-16T01:07:06.349Z,100531.16
2023-03-16T01:11:16.567Z,100536.31
2023-03-16T01:15:18.590Z,100552.31
2023-03-16T01:19:20.382Z,100542.06
2023-03-16T01:23:22.171Z,100553.38
2023-03-16T01:27:26.318Z,100559.06
2023-03-16T01:31:29.368Z,100568.44
2023-03-16T01:35:31.985Z,100574.63
2023-03-16T01:39:33.874Z,100568.28
2023-03-16T01:43:37.596Z,100557.63
2023-03-16T01:47:40.122Z,100562.22
2023-03-16T01:52:08.952Z,100566.53
2023-03-16T01:56:11.102Z,100569.19
2023-03-16T02:00:19.765Z,100563.22
2023-03-16T02:05:10.763Z,100571.47
2023-03-16T02:09:14.474Z,100563.75
2023-03-16T02:13:16.400Z,100567.22
2023-03-16T02:17:24.079Z,100557.34
2023-03-16T02:21:38.462Z,100555.69
2023-03-16T02:25:57.999Z,100573.66
2023-03-16T02:30:11.944Z,100571.59
2023-03-16T02:34:15.831Z,100579.78
2023-03-16T02:38:17.661Z,100578.00
2023-03-16T02:42:22.909Z,100574.28
2023-03-16T02:46:27.274Z,100581.28
2023-03-16T02:50:29.483Z,100573.72
2023-03-16T02:54:31.834Z,100574.88
2023-03-16T02:58:35.058Z,100584.56
2023-03-16T03:02:43.757Z,100570.19
2023-03-16T03:06:51.742Z,100581.84
2023-03-16T03:11:06.709Z,100577.44
2023-03-16T03:15:15.701Z,100575.03
2023-03-16T03:19:24.779Z,100574.06
2023-03-16T03:23:32.842Z,100588.69
2023-03-16T03:27:36.107Z,100592.09
2023-03-16T03:31:37.984Z,100581.31
2023-03-16T03:35:39.899Z,100590.31
2023-03-16T03:39:41.926Z,100594.41
2023-03-16T03:43:44.671Z,100599.72
2023-03-16T03:47:46.578Z,100588.84
2023-03-16T03:51:48.499Z,100610.25
2023-03-16T03:55:50.724Z,100612.03
2023-03-16T03:59:52.511Z,100605.50
2023-03-16T04:03:54.353Z,100605.09
2023-03-16T04:07:57.602Z,100601.75
2023-03-16T04:12:00.898Z,100599.72
2023-03-16T04:16:02.799Z,100614.13
2023-03-16T04:20:16.014Z,100608.44
2023-03-16T04:24:17.986Z,100602.13
2023-03-16T04:28:19.829Z,100615.31
2023-03-16T04:32:21.574Z,100608.06
2023-03-16T04:36:25.850Z,100609.34
2023-03-16T04:40:27.867Z,100609.41
2023-03-16T04:44:29.917Z,100605.44
2023-03-16T04:48:34.750Z,100622.19
2023-03-16T04:52:36.655Z,100597.72
2023-03-16T04:56:41.614Z,100597.81
2023-03-16T05:00:43.535Z,100610.53
2023-03-16T05:04:45.560Z,100606.03
2023-03-16T05:08:51.049Z,100617.31
2023-03-16T05:12:53.163Z,100612.69
2023-03-16T05:16:56.207Z,100611.13
2023-03-16T05:20:58.026Z,100606.00
2023-03-16T05:25:03.385Z,100612.78
2023-03-16T05:29:05.342Z,100619.53
2023-03-16T05:33:07.368Z,100629.16
2023-03-16T05:37:10.075Z,100629.91
2023-03-16T05:41:12.305Z,100635.81
2023-03-16T05:45:17.662Z,100621.88
2023-03-16T05:49:19.567Z,100628.94
2023-03-16T05:53:24.046Z,100648.63
2023-03-16T05:57:29.148Z,100641.47
2023-03-16T06:01:31.909Z,100634.81
2023-03-16T06:05:33.889Z,100627.94
2023-03-16T06:09:36.378Z,100632.22
2023-03-16T06:13:39.225Z,100629.56
2023-03-16T06:17:41.570Z,100621.94
2023-03-16T06:21:43.656Z,100622.94
2023-03-16T06:25:49.893Z,100629.94
2023-03-16T06:29:51.632Z,100628.63
2023-03-16T06:33:53.444Z,100620.22
2023-03-16T06:37:55.199Z,100614.81
2023-03-16T06:41:57.744Z,100627.16
2023-03-16T06:45:59.673Z,100618.69
2023-03-16T06:50:01.555Z,100624.47
2023-03-16T06:54:03.659Z,100611.69
2023-03-16T06:58:05.414Z,100624.25
2023-03-16T07:02:07.346Z,100613.97
2023-03-16T07:06:09.609Z,100629.97
2023-03-16T07:10:17.349Z,100621.75
2023-03-16T07:14:20.009Z,100627.16
2023-03-16T07:18:22.082Z,100639.94
2023-03-16T07:22:23.983Z,100638.19
2023-03-16T07:26:25.810Z,100636.00
2023-03-16T07:30:27.824Z,100638.50
2023-03-16T07:34:29.749Z,100645.63
2023-03-16T07:38:33.042Z,100637.94
2023-03-16T07:42:35.647Z,100635.19
2023-03-16T07:46:37.482Z,100629.16
2023-03-16T07:50:39.233Z,100620.31
2023-03-16T07:54:41.493Z,100633.06
2023-03-16T07:58:43.435Z,100629.91
2023-03-16T08:02:45.253Z,100633.44
2023-03-16T08:06:47.938Z,100633.59
2023-03-16T08:10:52.432Z,100639.41
2023-03-16T08:14:54.695Z,100635.63
2023-03-16T08:18:57.160Z,100636.88
2023-03-16T08:22:59.109Z,100637.00
2023-03-16T08:27:03.504Z,100634.38
2023-03-16T08:31:07.432Z,100637.47
2023-03-16T08:35:14.660Z,100637.47
2023-03-16T08:39:16.506Z,100637.44
2023-03-16T08:43:19.144Z,100640.75
2023-03-16T08:47:22.971Z,100648.22
2023-03-16T08:51:25.070Z,100634.47
2023-03-16T08:55:26.983Z,100639.41
2023-03-16T08:59:30.667Z,100640.59
2023-03-16T09:03:33.390Z,100627.38
2023-03-16T09:07:36.350Z,100643.69
2023-03-16T09:11:38.269Z,100644.19
2023-03-16T09:15:40.441Z,100646.19
2023-03-16T09:19:52.177Z,100640.69
2023-03-16T09:23:54.952Z,100641.28
2023-03-16T09:27:56.740Z,100639.78
2023-03-16T09:31:58.567Z,100631.28
2023-03-16T09:36:00.459Z,100633.56
2023-03-16T09:40:10.183Z,100632.25
2023-03-16T09:44:44.403Z,100625.72
2023-03-16T09:48:46.632Z,100640.06
2023-03-16T09:53:21.178Z,100634.41
2023-03-16T09:57:36.819Z,100626.13
2023-03-16T10:02:02.436Z,100626.50
2023-03-16T10:06:06.785Z,100624.50
2023-03-16T10:10:11.610Z,100625.28
2023-03-16T10:14:40.372Z,100629.31
2023-03-16T10:18:48.561Z,100622.81
2023-03-16T10:22:52.533Z,100618.69
2023-03-16T10:27:00.374Z,100621.28
2023-03-16T10:31:03.514Z,100619.38
2023-03-16T10:35:49.032Z,100626.97
2023-03-16T10:39:50.856Z,100614.75
2023-03-16T10:44:10.568Z,100624.59
2023-03-16T10:48:20.099Z,100607.88
2023-03-16T10:52:45.454Z,100609.81
2023-03-16T10:56:50.774Z,100613.00
2023-03-16T11:00:53.740Z,100598.53
2023-03-16T11:04:57.360Z,100603.03
2023-03-16T11:09:21.155Z,100595.56
2023-03-16T11:13:24.743Z,100580.25
2023-03-16T11:17:38.547Z,100578.38
2023-03-16T11:21:56.288Z,100583.13
2023-03-16T11:26:02.056Z,100572.44
2023-03-16T11:30:09.789Z,100561.94
2023-03-16T11:34:28.342Z,100553.63
2023-03-16T11:43:56.273Z,100550.19
2023-03-16T11:48:20.476Z,100551.00
2023-03-16T11:53:17.536Z,100546.25
2023-03-16T11:57:40.117Z,100528.22
2023-03-16T12:02:12.645Z,100528.25
2023-03-16T12:06:32.915Z,100521.56
2023-03-16T12:10:46.880Z,100526.19
2023-03-16T12:15:30.012Z,100522.75
2023-03-16T12:19:50.694Z,100517.84
2023-03-16T12:24:04.296Z,100515.47
2023-03-16T12:28:14.058Z,100519.81
2023-03-16T12:32:35.196Z,100497.03
2023-03-16T12:36:45.722Z,100500.53
2023-03-16T12:41:26.622Z,100495.81
2023-03-16T12:46:09.938Z,100487.59
2023-03-16T12:50:16.957Z,100484.69
2023-03-16T12:54:25.477Z,100494.59
2023-03-16T12:58:27.555Z,100485.50
2023-03-16T13:02:34.585Z,100475.31
2023-03-16T13:06:36.690Z,100474.63
2023-03-16T13:10:38.781Z,100469.41
2023-03-16T13:14:44.285Z,100459.72
2023-03-16T13:18:46.193Z,100460.56
2023-03-16T13:23:13.240Z,100455.28
2023-03-16T13:27:26.243Z,100453.25
2023-03-16T13:31:37.701Z,100438.19
2023-03-16T13:35:39.672Z,100442.47
2023-03-16T13:39:41.697Z,100445.09
2023-03-16T13:43:44.265Z,100433.03
2023-03-16T13:47:46.800Z,100435.38
2023-03-16T13:51:48.770Z,100421.88
2023-03-16T13:55:50.583Z,100410.56
2023-03-16T14:00:36.949Z,100419.75
2023-03-16T14:04:38.751Z,100433.31
2023-03-16T14:08:40.529Z,100408.53
2023-03-16T14:12:54.199Z,100420.84
2023-03-16T14:17:08.781Z,100401.25
2023-03-16T14:21:26.433Z,100398.31
2023-03-16T14:25:29.330Z,100406.53
2023-03-16T14:29:31.598Z,100405.84
2023-03-16T14:33:35.993Z,100403.22
2023-03-16T14:37:39.658Z,100403.16
2023-03-16T14:41:41.536Z,100393.00
2023-03-16T14:45:43.406Z,100400.63
2023-03-16T14:49:49.327Z,100405.13
2023-03-16T14:53:51.490Z,100402.22
2023-03-16T14:57:54.049Z,100400.22
2023-03-16T15:01:56.143Z,100397.28
2023-03-16T15:05:58.307Z,100399.22
2023-03-16T15:10:23.836Z,100395.00
2023-03-16T15:14:45.190Z,100379.59
2023-03-16T15:18:48.232Z,100379.56
2023-03-16T15:22:53.982Z,100375.09
2023-03-16T15:26:55.842Z,100386.06
2023-03-16T15:30:59.452Z,100372.13
2023-03-16T15:35:01.598Z,100376.81
2023-03-16T15:39:08.549Z,100371.03
2023-03-16T15:43:13.102Z,100388.59
2023-03-16T15:47:15.693Z,100389.19
2023-03-16T15:51:23.317Z,100379.63
2023-03-16T15:55:34.095Z,100367.34
2023-03-16T15:59:36.899Z,100352.41
2023-03-16T16:03:39.884Z,100347.00
2023-03-16T16:07:41.867Z,100374.47
2023-03-16T16:11:43.978Z,100368.06
2023-03-16T16:15:47.171Z,100381.13
2023-03-16T16:19:48.881Z,100363.03
2023-03-16T16:23:50.854Z,100383.06
2023-03-16T16:27:52.732Z,100382.50
2023-03-16T16:31:57.145Z,100380.47
2023-03-16T16:36:01.718Z,100397.50
2023-03-16T16:40:03.906Z,100397.50
2023-03-16T16:44:08.450Z,100395.72
2023-03-16T16:48:24.666Z,100384.69
2023-03-16T16:52:26.825Z,100379.94
2023-03-16T16:56:33.736Z,100385.88
2023-03-16T17:00:35.509Z,100372.03
2023-03-16T17:04:37.540Z,100381.44
2023-03-16T17:08:39.435Z,100382.50
2023-03-16T17:12:41.862Z,100390.84
2023-03-16T17:16:44.669Z,100378.47
2023-03-16T17:20:47.060Z,100376.00
2023-03-16T17:24:53.754Z,100378.53
2023-03-16T17:29:18.733Z,100387.81
2023-03-16T17:33:21.117Z,100390.22
2023-03-16T17:37:23.266Z,100372.72
2023-03-16T17:41:27.264Z,100395.53
2023-03-16T17:45:29.516Z,100387.50
2023-03-16T17:49:32.039Z,100377.75
2023-03-16T17:53:33.998Z,100362.91
2023-03-16T17:57:36.294Z,100369.75
2023-03-16T18:01:39.118Z,100367.06
2023-03-16T18:05:49.053Z,100362.59
2023-03-16T18:09:51.027Z,100367.34
2023-03-16T18:13:54.742Z,100363.47
2023-03-16T18:17:58.099Z,100359.50
2023-03-16T18:22:00.140Z,100347.03
2023-03-16T18:26:06.334Z,100351.16
2023-03-16T18:30:10.416Z,100351.22
2023-03-16T18:34:21.555Z,100341.44
2023-03-16T18:38:35.325Z,100345.75
2023-03-16T18:42:39.901Z,100342.81
2023-03-16T18:46:41.844Z,100342.75
2023-03-16T18:50:47.125Z,100330.31
2023-03-16T18:54:51.492Z,100333.56
2023-03-16T18:58:54.000Z,100321.22
2023-03-16T19:03:02.451Z,100325.22
2023-03-16T19:07:05.578Z,100333.47
2023-03-16T19:11:09.813Z,100332.44
2023-03-16T19:15:31.316Z,100335.28
2023-03-16T19:19:34.986Z,100338.59
2023-03-16T19:23:36.994Z,100336.47
2023-03-16T19:27:38.848Z,100317.72
2023-03-16T19:31:40.749Z,100323.19
2023-03-16T19:35:51.369Z,100314.44
2023-03-16T19:39:54.383Z,100305.69
2023-03-16T19:44:00.019Z,100304.34
2023-03-16T19:48:02.302Z,100303.72
2023-03-16T19:52:06.279Z,100306.56
2023-03-16T19:56:19.460Z,100306.94
2023-03-16T20:00:25.061Z,100316.69
2023-03-16T20:04:27.441Z,100318.94
2023-03-16T20:08:29.484Z,100322.50
2023-03-16T20:12:31.830Z,100321.94
2023-03-16T20:16:35.233Z,100313.13
2023-03-16T20:20:37.613Z,100309.53
2023-03-16T20:24:39.989Z,100307.53
2023-03-16T20:28:42.153Z,100308.78
2023-03-16T20:32:44.517Z,100300.34
2023-03-16T20:36:46.584Z,100299.47
2023-03-16T20:41:41.327Z,100301.59
2023-03-16T20:45:43.206Z,100295.06
2023-03-16T20:49:45.178Z,100289.59
2023-03-16T20:53:47.632Z,100285.09
2023-03-16T20:57:50.505Z,100275.75
2023-03-16T21:01:54.622Z,100276.34
2023-03-16T21:05:59.564Z,100281.72
2023-03-16T21:10:01.946Z,100286.41
2023-03-16T21:14:14.669Z,100269.94
2023-03-16T21:18:20.637Z,100250.22
2023-03-16T21:22:31.250Z,100254.09
2023-03-16T21:26:33.975Z,100266.72
2023-03-16T21:30:39.465Z,100259.19
2023-03-16T21:34:41.838Z,100253.03
2023-03-16T21:38:44.236Z,100238.22
2023-03-16T21:42:46.739Z,100249.84
2023-03-16T21:46:48.537Z,100249.72
2023-03-16T21:50:51.162Z,100255.22
2023-03-16T21:54:53.458Z,100251.59
2023-03-16T21:58:56.119Z,100252.34
2023-03-16T22:02:59.639Z,100248.19
2023-03-16T22:07:01.662Z,100254.63
2023-03-16T22:11:05.843Z,100236.28
2023-03-16T22:15:08.270Z,100229.75
2023-03-16T22:19:14.808Z,100218.34
2023-03-16T22:23:31.953Z,100215.00
2023-03-16T22:27:33.745Z,100220.31
2023-03-16T22:31:38.903Z,100221.16
2023-03-16T22:35:40.819Z,100212.97
2023-03-16T22:39:42.901Z,100200.72
2023-03-16T22:43:44.847Z,100191.38
2023-03-16T22:47:47.830Z,100186.94
2023-03-16T22:51:50.549Z,100189.09
2023-03-16T22:55:53.286Z,100185.06
2023-03-16T22:59:55.054Z,100174.03
2023-03-16T23:03:56.932Z,100184.06
2023-03-16T23:08:00.844Z,100172.22
2023-03-16T23:12:03.261Z,100187.56
2023-03-16T23:16:05.983Z,100165.69
2023-03-16T23:20:19.526Z,100174.63
2023-03-16T23:24:21.983Z,100182.19
2023-03-16T23:28:24.653Z,100188.09
2023-03-16T23:32:26.682Z,100178.66
2023-03-16T23:36:28.883Z,100171.63
2023-03-16T23:40:31.292Z,100163.03
2023-03-16T23:44:33.362Z,100163.56
2023-03-16T23:48:36.637Z,100148.72
2023-03-16T23:52:38.469Z,100151.59
2023-03-16T23:56:40.230Z,100147.69
